createdAt,value
2018-05-04T00:01:32.959Z,11.50
2018-05-04T00:04:02.718Z,11.50
2018-05-04T00:06:33.195Z,11.40
2018-05-04T00:09:03.323Z,11.40
2018-05-04T00:11:33.075Z,11.40
2018-05-04T00:14:04.421Z,11.30
2018-05-04T00:16:35.155Z,11.30
2018-05-04T00:19:05.070Z,11.30
2018-05-04T00:21:34.779Z,11.30
2018-05-04T00:24:05.103Z,11.20
2018-05-04T00:26:35.018Z,11.20
2018-05-04T00:29:04.888Z,11.20
2018-05-04T00:31:34.640Z,11.20
2018-05-04T00:34:06.090Z,11.10
2018-05-04T00:36:37.131Z,11.10
2018-05-04T00:39:08.481Z,11.00
2018-05-04T00:41:38.548Z,11.00
2018-05-04T00:44:09.337Z,11.00
2018-05-04T00:46:39.042Z,11.00
2018-05-04T00:49:09.276Z,11.00
2018-05-04T00:51:39.428Z,10.90
2018-05-04T00:54:20.831Z,10.90
2018-05-04T00:56:50.827Z,10.90
2018-05-04T00:59:21.070Z,10.80
2018-05-04T01:01:51.218Z,10.80
2018-05-04T01:04:22.265Z,10.80
2018-05-04T01:06:53.969Z,10.80
2018-05-04T01:09:24.550Z,10.80
2018-05-04T01:11:55.287Z,10.80
2018-05-04T01:14:25.609Z,10.80
2018-05-04T01:16:55.529Z,10.70
2018-05-04T01:19:25.231Z,10.70
2018-05-04T01:21:56.580Z,10.60
2018-05-04T01:24:26.497Z,10.70
2018-05-04T01:26:56.203Z,10.60
2018-05-04T01:29:26.119Z,10.60
2018-05-04T01:31:55.828Z,10.60
2018-05-04T01:34:25.946Z,10.50
2018-05-04T01:36:57.447Z,10.40
2018-05-04T01:39:27.210Z,10.50
2018-05-04T01:41:56.917Z,10.50
2018-05-04T01:44:28.152Z,10.40
2018-05-04T01:46:58.534Z,10.30
2018-05-04T01:49:28.306Z,10.30
2018-05-04T01:51:58.213Z,10.30
2018-05-04T01:54:28.349Z,10.30
2018-05-04T01:56:58.247Z,10.30
2018-05-04T01:59:28.161Z,10.30
2018-05-04T02:01:57.871Z,10.30
2018-05-04T02:04:28.194Z,10.20
2018-05-04T02:06:59.546Z,10.20
2018-05-04T02:09:29.252Z,10.20
2018-05-04T02:12:00.548Z,10.10
2018-05-04T02:14:30.515Z,10.10
2018-05-04T02:17:02.178Z,10.10
2018-05-04T02:19:32.949Z,10.00
2018-05-04T02:22:02.750Z,10.00
2018-05-04T02:24:32.780Z,10.00
2018-05-04T02:27:02.954Z,10.00
2018-05-04T02:29:32.867Z,9.90
2018-05-04T02:32:02.582Z,9.90
2018-05-04T02:34:33.925Z,9.90
2018-05-04T02:37:03.633Z,9.90
2018-05-04T02:39:33.351Z,9.80
2018-05-04T02:42:04.896Z,9.80
2018-05-04T02:44:34.604Z,9.80
2018-05-04T02:47:04.314Z,9.80
2018-05-04T02:49:34.842Z,9.80
2018-05-04T02:52:06.194Z,9.70
2018-05-04T02:54:35.900Z,9.70
2018-05-04T02:57:05.608Z,9.70
2018-05-04T02:59:36.957Z,9.60
2018-05-04T03:02:06.667Z,9.60
2018-05-04T03:04:38.015Z,9.60
2018-05-04T03:07:07.724Z,9.60
2018-05-04T03:09:37.435Z,9.60
2018-05-04T03:12:09.191Z,9.50
2018-05-04T03:14:39.105Z,9.50
2018-05-04T03:17:08.815Z,9.50
2018-05-04T03:19:38.524Z,9.50
2018-05-04T03:22:08.234Z,9.50
2018-05-04T03:24:37.944Z,9.40
2018-05-04T03:27:07.857Z,9.40
2018-05-04T03:29:37.567Z,9.40
2018-05-04T03:32:08.244Z,9.40
2018-05-04T03:34:38.215Z,9.30
2018-05-04T03:37:07.925Z,9.40
2018-05-04T03:39:39.272Z,9.30
2018-05-04T03:42:09.186Z,9.30
2018-05-04T03:44:38.896Z,9.30
2018-05-04T03:47:08.966Z,9.20
2018-05-04T03:49:38.729Z,9.20
2018-05-04T03:52:08.867Z,9.20
2018-05-04T03:54:38.759Z,9.20
2018-05-04T03:57:18.912Z,9.10
2018-05-04T03:59:59.885Z,9.10
2018-05-04T04:02:40.654Z,9.10
2018-05-04T04:05:10.568Z,9.10
2018-05-04T04:07:42.531Z,9.10
2018-05-04T04:10:12.398Z,9.10
2018-05-04T04:12:42.244Z,9.10
2018-05-04T04:15:11.864Z,9.10
2018-05-04T04:17:41.528Z,9.00
2018-05-04T04:20:11.289Z,9.00
2018-05-04T04:22:40.993Z,9.00
2018-05-04T04:25:10.710Z,9.00
2018-05-04T04:27:42.054Z,9.00
2018-05-04T04:30:11.776Z,9.00
2018-05-04T04:32:41.447Z,8.90
2018-05-04T04:35:11.182Z,8.90
2018-05-04T04:37:42.531Z,8.90
2018-05-04T04:40:12.442Z,8.90
2018-05-04T04:42:43.790Z,8.80
2018-05-04T04:45:14.321Z,8.80
2018-05-04T04:47:44.176Z,8.80
2018-05-04T04:50:14.353Z,8.80
2018-05-04T04:52:44.062Z,8.80
2018-05-04T04:55:15.615Z,8.70
2018-05-04T04:57:45.530Z,8.70
2018-05-04T05:00:15.246Z,8.70
2018-05-04T05:02:45.153Z,8.70
2018-05-04T05:05:20.910Z,8.70
2018-05-04T05:07:51.740Z,8.40
2018-05-04T05:10:21.450Z,8.40
2018-05-04T05:12:53.211Z,8.50
2018-05-04T05:15:24.565Z,8.60
2018-05-04T05:17:54.263Z,8.60
2018-05-04T05:20:24.795Z,8.60
2018-05-04T05:22:54.502Z,8.60
2018-05-04T05:25:24.420Z,8.60
2018-05-04T05:27:54.339Z,8.60
2018-05-04T05:30:24.040Z,8.60
2018-05-04T05:32:53.961Z,8.60
2018-05-04T05:35:23.667Z,8.60
2018-05-04T05:37:54.964Z,8.60
2018-05-04T05:40:24.927Z,8.60
2018-05-04T05:42:54.841Z,8.60
2018-05-04T05:45:26.190Z,8.60
2018-05-04T05:47:56.105Z,8.60
2018-05-04T05:50:27.453Z,8.60
2018-05-04T05:52:58.239Z,8.60
2018-05-04T05:55:28.100Z,8.60
2018-05-04T05:57:57.863Z,8.60
2018-05-04T06:00:27.519Z,8.60
2018-05-04T06:03:11.365Z,8.70
2018-05-04T06:05:50.801Z,8.70
2018-05-04T06:08:21.838Z,8.70
2018-05-04T06:10:52.775Z,8.70
2018-05-04T06:13:22.636Z,8.70
2018-05-04T06:15:52.399Z,8.70
2018-05-04T06:18:23.754Z,8.70
2018-05-04T06:20:53.663Z,8.70
2018-05-04T06:23:23.372Z,8.80
2018-05-04T06:25:53.287Z,8.80
2018-05-04T06:28:23.149Z,8.80
2018-05-04T06:30:53.120Z,8.80
2018-05-04T06:33:23.031Z,8.80
2018-05-04T06:35:52.942Z,8.90
2018-05-04T06:38:22.857Z,8.90
2018-05-04T06:40:52.570Z,8.90
2018-05-04T06:43:22.636Z,8.90
2018-05-04T06:45:52.451Z,8.90
2018-05-04T06:48:22.310Z,8.90
2018-05-04T06:50:52.019Z,9.00
2018-05-04T06:53:23.402Z,9.00
2018-05-04T06:55:54.101Z,9.00
2018-05-04T06:58:23.820Z,9.10
2018-05-04T07:00:53.930Z,9.10
2018-05-04T07:03:24.049Z,9.10
2018-05-04T07:05:53.969Z,9.10
2018-05-04T07:08:23.877Z,9.10
2018-05-04T07:10:53.794Z,9.10
2018-05-04T07:13:23.781Z,9.10
2018-05-04T07:15:53.521Z,9.10
2018-05-04T07:18:23.334Z,9.10
2018-05-04T07:20:53.044Z,9.10
2018-05-04T07:23:22.750Z,9.10
2018-05-04T07:25:52.464Z,9.10
2018-05-04T07:28:25.030Z,9.10
2018-05-04T07:30:54.745Z,9.20
2018-05-04T07:33:24.454Z,9.20
2018-05-04T07:35:54.117Z,9.20
2018-05-04T07:38:24.283Z,9.20
2018-05-04T07:40:54.198Z,9.30
2018-05-04T07:43:25.700Z,9.40
2018-05-04T07:45:55.461Z,9.40
2018-05-04T07:48:25.580Z,9.40
2018-05-04T07:50:55.702Z,9.40
2018-05-04T07:53:27.045Z,9.50
2018-05-04T07:55:56.756Z,9.50
2018-05-04T07:58:28.272Z,9.60
2018-05-04T08:00:58.635Z,9.60
2018-05-04T08:03:28.288Z,9.60
2018-05-04T08:05:58.257Z,9.60
2018-05-04T08:08:29.645Z,9.70
2018-05-04T08:10:59.446Z,9.70
2018-05-04T08:13:30.865Z,9.70
2018-05-04T08:16:00.741Z,9.70
2018-05-04T08:18:30.492Z,9.80
2018-05-04T08:21:00.815Z,9.80
2018-05-04T08:23:30.523Z,9.90
2018-05-04T08:26:00.232Z,10.00
2018-05-04T08:28:30.151Z,10.00
2018-05-04T08:31:00.676Z,10.10
2018-05-04T08:33:31.408Z,10.10
2018-05-04T08:36:02.962Z,10.20
2018-05-04T08:38:33.034Z,10.20
2018-05-04T08:41:02.945Z,10.30
2018-05-04T08:43:32.704Z,10.30
2018-05-04T08:46:02.414Z,10.40
2018-05-04T08:48:32.132Z,10.40
2018-05-04T08:51:02.105Z,10.40
2018-05-04T08:53:32.772Z,10.50
2018-05-04T08:56:02.686Z,10.60
2018-05-04T08:58:32.395Z,10.60
2018-05-04T09:01:02.104Z,10.60
2018-05-04T09:03:31.974Z,10.70
2018-05-04T09:06:02.140Z,10.70
2018-05-04T09:08:32.052Z,10.80
2018-05-04T09:11:01.966Z,10.80
2018-05-04T09:13:31.678Z,10.90
2018-05-04T09:16:01.392Z,10.90
2018-05-04T09:18:31.504Z,11.00
2018-05-04T09:21:01.214Z,11.00
2018-05-04T09:23:31.129Z,11.00
2018-05-04T09:26:01.008Z,11.10
2018-05-04T09:28:30.958Z,11.10
2018-05-04T09:31:00.735Z,11.10
2018-05-04T09:33:30.530Z,11.20
2018-05-04T09:36:00.498Z,11.20
2018-05-04T09:38:31.027Z,11.30
2018-05-04T09:41:01.144Z,11.30
2018-05-04T09:43:30.896Z,11.40
2018-05-04T09:46:00.974Z,11.40
2018-05-04T09:48:30.890Z,11.40
2018-05-04T09:51:02.645Z,11.40
2018-05-04T09:53:32.769Z,11.40
2018-05-04T09:56:02.766Z,11.50
2018-05-04T09:58:32.542Z,11.60
2018-05-04T10:01:02.836Z,11.60
2018-05-04T10:03:33.331Z,11.70
2018-05-04T10:06:03.161Z,11.70
2018-05-04T10:08:34.697Z,11.80
2018-05-04T10:11:04.360Z,11.80
2018-05-04T10:13:34.278Z,11.80
2018-05-04T10:16:04.269Z,11.80
2018-05-04T10:18:33.960Z,11.90
2018-05-04T10:21:03.664Z,12.00
2018-05-04T10:23:33.579Z,12.00
2018-05-04T10:26:03.493Z,11.90
2018-05-04T10:28:33.407Z,11.80
2018-05-04T10:31:03.418Z,11.80
2018-05-04T10:33:33.186Z,11.80
2018-05-04T10:36:02.946Z,11.80
2018-05-04T10:38:33.282Z,11.80
2018-05-04T10:41:02.988Z,11.80
2018-05-04T10:43:33.060Z,11.80
2018-05-04T10:46:03.012Z,11.80
2018-05-04T10:48:33.952Z,11.80
2018-05-04T10:51:05.305Z,11.90
2018-05-04T10:53:35.829Z,12.00
2018-05-04T10:56:05.741Z,12.00
2018-05-04T10:58:36.017Z,12.00
2018-05-04T11:01:05.979Z,12.10
2018-05-04T11:03:35.689Z,12.10
2018-05-04T11:06:05.608Z,12.10
2018-05-04T11:08:36.954Z,12.10
2018-05-04T11:11:06.874Z,12.10
2018-05-04T11:13:36.984Z,12.20
2018-05-04T11:16:08.404Z,12.30
2018-05-04T11:18:38.663Z,12.30
2018-05-04T11:21:08.725Z,12.40
2018-05-04T11:23:38.493Z,12.40
2018-05-04T11:26:08.194Z,12.40
2018-05-04T11:28:38.113Z,12.50
2018-05-04T11:31:08.025Z,12.50
2018-05-04T11:33:38.346Z,12.50
2018-05-04T11:36:09.902Z,12.60
2018-05-04T11:38:40.018Z,12.60
2018-05-04T11:41:11.367Z,12.70
2018-05-04T11:43:42.876Z,12.70
2018-05-04T11:46:12.786Z,12.70
2018-05-04T11:48:42.750Z,12.70
2018-05-04T11:51:12.662Z,12.80
2018-05-04T11:53:42.372Z,12.90
2018-05-04T11:56:12.491Z,12.90
2018-05-04T11:58:43.840Z,13.00
2018-05-04T12:01:13.752Z,13.00
2018-05-04T12:03:45.101Z,13.10
2018-05-04T12:06:15.019Z,13.10
2018-05-04T12:08:44.929Z,13.20
2018-05-04T12:11:15.048Z,13.20
2018-05-04T12:13:46.397Z,13.30
2018-05-04T12:16:16.324Z,13.30
2018-05-04T12:18:46.228Z,13.30
2018-05-04T12:21:16.754Z,13.40
2018-05-04T12:23:47.034Z,13.40
2018-05-04T12:26:16.787Z,13.50
2018-05-04T12:28:48.341Z,13.50
2018-05-04T12:31:18.101Z,13.60
2018-05-04T12:33:47.893Z,13.60
2018-05-04T12:36:17.827Z,13.70
2018-05-04T12:38:47.587Z,13.70
2018-05-04T12:41:17.456Z,13.70
2018-05-04T12:43:47.375Z,13.80
2018-05-04T12:46:17.333Z,13.80
2018-05-04T12:48:47.041Z,13.80
2018-05-04T12:51:16.954Z,13.90
2018-05-04T12:53:46.702Z,13.90
2018-05-04T12:56:16.577Z,14.00
2018-05-04T12:58:46.494Z,14.00
2018-05-04T13:01:17.845Z,14.00
2018-05-04T13:03:47.854Z,14.00
2018-05-04T13:06:18.080Z,14.10
2018-05-04T13:08:48.103Z,14.10
2018-05-04T13:11:18.317Z,14.20
2018-05-04T13:13:48.602Z,14.20
2018-05-04T13:16:18.350Z,14.20
2018-05-04T13:18:48.265Z,14.20
2018-05-04T13:21:18.444Z,14.30
2018-05-04T13:23:48.502Z,14.30
2018-05-04T13:26:20.056Z,14.30
2018-05-04T13:28:50.178Z,14.30
2018-05-04T13:31:20.089Z,14.30
2018-05-04T13:33:50.003Z,14.40
2018-05-04T13:36:20.117Z,14.60
2018-05-04T13:38:50.243Z,14.50
2018-05-04T13:41:20.512Z,14.50
2018-05-04T13:43:50.274Z,14.40
2018-05-04T13:46:20.155Z,14.40
2018-05-04T13:48:50.308Z,14.40
2018-05-04T13:51:21.718Z,14.50
2018-05-04T13:53:51.570Z,14.50
2018-05-04T13:56:23.124Z,14.50
2018-05-04T13:58:54.472Z,14.50
2018-05-04T14:01:24.593Z,14.50
2018-05-04T14:03:54.540Z,14.60
2018-05-04T14:06:24.829Z,14.60
2018-05-04T14:08:54.744Z,14.60
2018-05-04T14:11:24.865Z,14.60
2018-05-04T14:13:54.776Z,14.60
2018-05-04T14:16:24.691Z,14.70
2018-05-04T14:18:56.039Z,14.70
2018-05-04T14:21:26.776Z,14.70
2018-05-04T14:23:56.686Z,14.70
2018-05-04T14:26:27.191Z,14.70
2018-05-04T14:28:57.262Z,14.80
2018-05-04T14:31:27.863Z,14.80
2018-05-04T14:33:57.983Z,14.80
2018-05-04T14:36:59.231Z,14.80
2018-05-04T14:39:30.749Z,14.80
2018-05-04T14:42:00.496Z,14.80
2018-05-04T14:44:32.868Z,14.80
2018-05-04T14:47:03.394Z,14.90
2018-05-04T14:49:33.107Z,14.80
2018-05-04T14:52:04.491Z,14.80
2018-05-04T14:54:34.369Z,14.80
2018-05-04T14:57:04.289Z,14.90
2018-05-04T14:59:35.189Z,14.90
2018-05-04T15:02:05.137Z,14.90
2018-05-04T15:04:36.557Z,14.90
2018-05-04T15:07:06.402Z,14.90
2018-05-04T15:09:36.515Z,15.20
2018-05-04T15:12:06.634Z,15.30
2018-05-04T15:14:36.450Z,15.20
2018-05-04T15:17:06.622Z,15.20
2018-05-04T15:19:36.597Z,15.10
2018-05-04T15:22:06.680Z,15.10
2018-05-04T15:24:37.437Z,15.10
2018-05-04T15:27:08.143Z,15.10
2018-05-04T15:29:40.132Z,15.10
2018-05-04T15:32:10.864Z,15.10
2018-05-04T15:34:40.783Z,15.10
2018-05-04T15:37:10.900Z,15.10
2018-05-04T15:39:40.608Z,15.10
2018-05-04T15:42:11.550Z,15.10
2018-05-04T15:44:49.686Z,15.10
2018-05-04T15:47:27.745Z,15.10
2018-05-04T15:50:02.385Z,15.10
2018-05-04T15:52:32.296Z,15.10
2018-05-04T15:55:03.213Z,15.10
2018-05-04T15:57:33.096Z,15.00
2018-05-04T16:00:03.118Z,15.10
2018-05-04T16:02:33.184Z,15.10
2018-05-04T16:05:04.331Z,15.10
2018-05-04T16:07:34.244Z,15.00
2018-05-04T16:10:05.590Z,15.10
2018-05-04T16:12:37.142Z,15.10
2018-05-04T16:15:07.065Z,15.10
2018-05-04T16:17:36.923Z,15.10
2018-05-04T16:20:06.683Z,15.10
2018-05-04T16:22:36.606Z,15.10
2018-05-04T16:25:06.921Z,15.10
2018-05-04T16:27:37.023Z,15.10
2018-05-04T16:30:07.157Z,15.10
2018-05-04T16:32:37.561Z,15.10
2018-05-04T16:35:07.400Z,15.00
2018-05-04T16:37:38.742Z,15.00
2018-05-04T16:40:08.451Z,15.00
2018-05-04T16:42:38.373Z,15.10
2018-05-04T16:45:08.045Z,15.10
2018-05-04T16:47:42.701Z,15.10
2018-05-04T16:50:12.615Z,15.10
2018-05-04T16:52:42.531Z,15.10
2018-05-04T16:55:12.650Z,15.10
2018-05-04T16:57:44.163Z,15.00
2018-05-04T17:00:14.319Z,15.00
2018-05-04T17:02:44.238Z,15.00
2018-05-04T17:05:14.096Z,15.00
2018-05-04T17:07:44.064Z,15.00
2018-05-04T17:10:14.388Z,15.00
2018-05-04T17:12:45.708Z,15.00
2018-05-04T17:15:15.653Z,15.00
2018-05-04T17:17:45.511Z,15.00
2018-05-04T17:20:15.278Z,15.00
2018-05-04T17:22:45.191Z,15.10
2018-05-04T17:25:15.106Z,15.20
2018-05-04T17:27:45.035Z,15.40
2018-05-04T17:30:15.294Z,15.50
2018-05-04T17:32:45.665Z,15.60
2018-05-04T17:35:17.014Z,15.70
2018-05-04T17:37:47.079Z,15.70
2018-05-04T17:40:17.166Z,15.70
2018-05-04T17:42:47.161Z,15.80
2018-05-04T17:45:17.910Z,15.80
2018-05-04T17:47:47.814Z,15.80
2018-05-04T17:50:17.932Z,15.90
2018-05-04T17:52:49.616Z,15.90
2018-05-04T17:55:20.323Z,15.90
2018-05-04T17:57:50.338Z,15.90
2018-05-04T18:00:21.891Z,15.90
2018-05-04T18:02:51.750Z,15.90
2018-05-04T18:05:21.806Z,15.90
2018-05-04T18:07:51.832Z,16.00
2018-05-04T18:10:22.013Z,16.00
2018-05-04T18:12:51.944Z,16.00
2018-05-04T18:15:22.199Z,16.00
2018-05-04T18:17:53.788Z,15.90
2018-05-04T18:20:23.612Z,16.00
2018-05-04T18:22:53.371Z,16.00
2018-05-04T18:25:23.345Z,16.00
2018-05-04T18:27:53.540Z,16.00
2018-05-04T18:30:24.532Z,16.00
2018-05-04T18:32:54.667Z,16.00
2018-05-04T18:35:26.017Z,15.90
2018-05-04T18:37:55.878Z,15.90
2018-05-04T18:40:25.999Z,15.90
2018-05-04T18:42:56.988Z,15.90
2018-05-04T18:45:26.737Z,15.90
2018-05-04T18:47:57.801Z,15.90
2018-05-04T18:50:28.369Z,15.90
2018-05-04T18:52:58.701Z,15.80
2018-05-04T18:55:28.555Z,15.80
2018-05-04T18:57:58.784Z,15.80
2018-05-04T19:00:28.802Z,15.80
2018-05-04T19:03:03.062Z,15.80
2018-05-04T19:05:33.029Z,15.80
2018-05-04T19:08:03.098Z,15.80
2018-05-04T19:10:33.009Z,15.80
2018-05-04T19:13:03.127Z,15.80
2018-05-04T19:15:33.250Z,15.70
2018-05-04T19:18:03.323Z,15.70
2018-05-04T19:20:33.703Z,15.70
2018-05-04T19:23:03.761Z,15.70
2018-05-04T19:25:33.705Z,15.60
2018-05-04T19:28:04.047Z,15.60
2018-05-04T19:30:34.793Z,15.60
2018-05-04T19:33:05.513Z,15.60
2018-05-04T19:35:35.634Z,15.60
2018-05-04T19:38:06.307Z,15.60
2018-05-04T19:40:36.856Z,15.50
2018-05-04T19:43:06.708Z,15.50
2018-05-04T19:45:37.930Z,15.50
2018-05-04T19:48:08.421Z,15.50
2018-05-04T19:50:38.523Z,15.50
2018-05-04T19:53:08.547Z,15.40
2018-05-04T19:55:39.346Z,15.40
2018-05-04T19:58:09.885Z,15.40
2018-05-04T20:00:46.584Z,15.40
2018-05-04T20:03:25.329Z,15.40
2018-05-04T20:05:56.263Z,15.30
2018-05-04T20:08:26.105Z,15.30
2018-05-04T20:10:56.212Z,15.30
2018-05-04T20:13:26.958Z,15.30
2018-05-04T20:15:57.161Z,15.30
2018-05-04T20:18:27.265Z,15.20
2018-05-04T20:20:57.148Z,15.10
2018-05-04T20:23:28.992Z,14.40
2018-05-04T20:26:00.647Z,13.80
2018-05-04T20:28:31.587Z,13.50
2018-05-04T20:31:01.425Z,13.90
2018-05-04T20:33:31.244Z,14.30
2018-05-04T20:36:01.518Z,14.50
2018-05-04T20:38:42.725Z,14.60
2018-05-04T20:41:25.560Z,14.70
2018-05-04T20:43:56.221Z,14.60
2018-05-04T20:46:26.176Z,14.70
2018-05-04T20:48:56.101Z,14.70
2018-05-04T20:51:26.209Z,14.60
2018-05-04T20:53:57.772Z,14.60
2018-05-04T20:56:27.957Z,14.60
2018-05-04T20:58:57.793Z,14.70
2018-05-04T21:01:27.578Z,14.60
2018-05-04T21:03:57.449Z,14.60
2018-05-04T21:06:27.540Z,14.60
2018-05-04T21:08:57.252Z,14.60
2018-05-04T21:11:27.165Z,14.60
2018-05-04T21:13:58.537Z,14.60
2018-05-04T21:16:28.425Z,14.60
2018-05-04T21:18:58.341Z,14.60
2018-05-04T21:21:28.289Z,14.60
2018-05-04T21:23:58.122Z,14.50
2018-05-04T21:26:27.878Z,14.50
2018-05-04T21:28:57.793Z,14.50
2018-05-04T21:31:27.655Z,14.40
2018-05-04T21:33:57.418Z,14.40
2018-05-04T21:36:27.291Z,14.40
2018-05-04T21:38:57.169Z,14.40
2018-05-04T21:41:28.391Z,14.30
2018-05-04T21:43:58.302Z,14.30
2018-05-04T21:46:28.046Z,14.30
2018-05-04T21:48:58.119Z,14.30
2018-05-04T21:51:27.833Z,14.20
2018-05-04T21:53:57.708Z,14.20
2018-05-04T21:56:27.673Z,14.20
2018-05-04T21:58:58.404Z,14.20
2018-05-04T22:01:37.978Z,14.10
2018-05-04T22:04:13.878Z,14.10
2018-05-04T22:06:44.299Z,14.10
2018-05-04T22:09:14.465Z,14.10
2018-05-04T22:11:45.143Z,14.00
2018-05-04T22:14:14.897Z,14.00
2018-05-04T22:16:45.006Z,14.00
2018-05-04T22:19:14.921Z,14.00
2018-05-04T22:21:44.836Z,14.00
2018-05-04T22:24:14.765Z,13.90
2018-05-04T22:26:44.609Z,13.90
2018-05-04T22:29:14.783Z,13.80
2018-05-04T22:31:46.029Z,13.80
2018-05-04T22:34:16.249Z,13.80
2018-05-04T22:36:46.164Z,13.80
2018-05-04T22:39:17.829Z,13.80
2018-05-04T22:41:47.850Z,13.70
2018-05-04T22:44:17.750Z,13.70
2018-05-04T22:46:47.720Z,13.70
2018-05-04T22:49:17.786Z,13.60
2018-05-04T22:51:47.851Z,13.60
2018-05-04T22:54:17.819Z,13.60
2018-05-04T22:56:49.164Z,13.50
2018-05-04T22:59:19.186Z,13.60
2018-05-04T23:01:48.994Z,13.50
2018-05-04T23:04:18.709Z,13.50
2018-05-04T23:06:48.624Z,13.50
2018-05-04T23:09:18.325Z,13.50
2018-05-04T23:11:48.242Z,13.40
2018-05-04T23:14:17.958Z,13.40
2018-05-04T23:16:47.660Z,13.40
2018-05-04T23:19:19.007Z,13.30
2018-05-04T23:21:49.129Z,13.30
2018-05-04T23:24:19.041Z,13.30
2018-05-04T23:26:50.189Z,13.30
2018-05-04T23:29:19.895Z,13.30
2018-05-04T23:31:50.123Z,13.30
2018-05-04T23:34:19.927Z,13.20
2018-05-04T23:36:49.844Z,13.20
2018-05-04T23:39:19.757Z,13.20
2018-05-04T23:41:49.670Z,13.20
2018-05-04T23:44:19.584Z,13.20
2018-05-04T23:46:49.498Z,13.10
2018-05-04T23:49:19.412Z,13.10
2018-05-04T23:51:50.150Z,13.10
2018-05-04T23:54:19.984Z,13.00
2018-05-04T23:56:50.592Z,13.00
2018-05-04T23:59:20.600Z,13.00
